createdAt,value
2018-11-03T00:02:22.033Z,97040.09
2018-11-03T00:04:52.513Z,97041.27
2018-11-03T00:07:21.498Z,97036.54
2018-11-03T00:09:50.364Z,97030.39
2018-11-03T00:12:19.566Z,97023.86
2018-11-03T00:14:49.202Z,97028.76
2018-11-03T00:17:19.749Z,97030.77
2018-11-03T00:19:50.022Z,97040.73
2018-11-03T00:22:18.895Z,97034.59
2018-11-03T00:24:47.691Z,97029.44
2018-11-03T00:27:17.540Z,97031.28
2018-11-03T00:29:46.440Z,97035.03
2018-11-03T00:32:15.419Z,97031.86
2018-11-03T00:34:45.962Z,97032.67
2018-11-03T00:37:15.274Z,97030.09
2018-11-03T00:39:44.382Z,97038.38
2018-11-03T00:42:13.234Z,97028.55
2018-11-03T00:44:42.620Z,97031.94
2018-11-03T00:47:12.382Z,97036.62
2018-11-03T00:49:41.190Z,97037.43
2018-11-03T00:52:10.962Z,97039.58
2018-11-03T00:54:39.859Z,97032.10
2018-11-03T00:57:08.750Z,97032.45
2018-11-03T00:59:37.718Z,97032.75
2018-11-03T01:02:07.043Z,97033.88
2018-11-03T01:04:36.042Z,97034.17
2018-11-03T01:07:08.552Z,97036.84
2018-11-03T01:09:37.370Z,97037.27
2018-11-03T01:12:06.511Z,97034.81
2018-11-03T01:14:36.179Z,97036.91
2018-11-03T01:17:05.224Z,97038.77
2018-11-03T01:19:35.816Z,97031.50
2018-11-03T01:22:04.802Z,97028.75
2018-11-03T01:24:33.674Z,97013.50
2018-11-03T01:27:02.899Z,97006.03
2018-11-03T01:29:32.542Z,97003.36
2018-11-03T01:32:01.395Z,97004.13
2018-11-03T01:34:30.214Z,97004.91
2018-11-03T01:36:59.123Z,96995.23
2018-11-03T01:39:27.974Z,96997.89
2018-11-03T01:41:58.029Z,97005.80
2018-11-03T01:44:27.550Z,97008.46
2018-11-03T01:46:56.439Z,96999.66
2018-11-03T01:49:25.246Z,97003.35
2018-11-03T01:51:54.090Z,97001.94
2018-11-03T01:54:24.576Z,96998.54
2018-11-03T01:56:53.422Z,96996.91
2018-11-03T01:59:23.640Z,96985.60
2018-11-03T02:01:54.093Z,96989.30
2018-11-03T02:04:24.933Z,96990.63
2018-11-03T02:06:54.059Z,96997.93
2018-11-03T02:09:25.887Z,96998.74
2018-11-03T02:11:54.764Z,96997.06
2018-11-03T02:14:23.670Z,96993.70
2018-11-03T02:16:52.831Z,97000.82
2018-11-03T02:19:22.369Z,97009.75
2018-11-03T02:21:51.287Z,97012.20
2018-11-03T02:24:20.129Z,97007.69
2018-11-03T02:26:49.298Z,97015.07
2018-11-03T02:29:18.174Z,97012.53
2018-11-03T02:31:47.075Z,97019.19
2018-11-03T02:34:15.987Z,97020.82
2018-11-03T02:36:44.834Z,97012.23
2018-11-03T02:39:13.673Z,97012.98
2018-11-03T02:41:42.819Z,97022.73
2018-11-03T02:44:11.775Z,97029.59
2018-11-03T02:46:40.646Z,97041.88
2018-11-03T02:49:09.496Z,97045.86
2018-11-03T02:51:38.292Z,97055.48
2018-11-03T02:54:08.211Z,97053.63
2018-11-03T02:56:37.091Z,97059.77
2018-11-03T02:59:06.443Z,97059.98
2018-11-03T03:01:35.264Z,97063.89
2018-11-03T03:04:04.189Z,97065.37
2018-11-03T03:06:33.389Z,97073.56
2018-11-03T03:09:02.247Z,97076.85
2018-11-03T03:11:31.141Z,97079.14
2018-11-03T03:14:00.423Z,97073.59
2018-11-03T03:16:29.234Z,97071.83
2018-11-03T03:18:58.039Z,97069.48
2018-11-03T03:21:27.372Z,97064.97
2018-11-03T03:23:56.210Z,97061.77
2018-11-03T03:26:28.822Z,97070.37
2018-11-03T03:28:57.777Z,97074.15
2018-11-03T03:31:26.662Z,97075.94
2018-11-03T03:33:57.186Z,97080.55
2018-11-03T03:36:26.793Z,97079.52
2018-11-03T03:38:55.643Z,97078.41
2018-11-03T03:41:24.640Z,97074.20
2018-11-03T03:43:53.848Z,97083.47
2018-11-03T03:46:22.659Z,97084.80
2018-11-03T03:48:51.538Z,97089.20
2018-11-03T03:51:20.796Z,97082.25
2018-11-03T03:53:49.738Z,97086.95
2018-11-03T03:56:18.579Z,97092.98
2018-11-03T03:58:47.400Z,97092.88
2018-11-03T04:01:16.753Z,97097.13
2018-11-03T04:03:47.192Z,97093.08
2018-11-03T04:06:16.054Z,97098.81
2018-11-03T04:08:44.936Z,97091.49
2018-11-03T04:11:15.458Z,97091.77
2018-11-03T04:13:44.338Z,97091.77
2018-11-03T04:16:13.196Z,97098.34
2018-11-03T04:18:42.051Z,97093.66
2018-11-03T04:21:14.626Z,97101.73
2018-11-03T04:23:43.512Z,97101.00
2018-11-03T04:26:12.399Z,97108.23
2018-11-03T04:28:43.279Z,97109.66
2018-11-03T04:31:12.181Z,97110.27
2018-11-03T04:33:46.090Z,97105.88
2018-11-03T04:36:15.666Z,97108.23
2018-11-03T04:38:44.599Z,97106.63
2018-11-03T04:41:15.584Z,97114.38
2018-11-03T04:43:44.827Z,97108.23
2018-11-03T04:46:13.664Z,97105.72
2018-11-03T04:48:42.842Z,97110.16
2018-11-03T04:51:12.171Z,97121.92
2018-11-03T04:53:41.010Z,97122.29
2018-11-03T04:56:09.794Z,97121.06
2018-11-03T04:58:38.663Z,97123.52
2018-11-03T05:01:07.487Z,97123.72
2018-11-03T05:03:36.436Z,97123.72
2018-11-03T05:06:05.362Z,97124.63
2018-11-03T05:08:34.242Z,97128.63
2018-11-03T05:11:03.082Z,97130.77
2018-11-03T05:13:31.898Z,97127.67
2018-11-03T05:16:00.819Z,97128.58
2018-11-03T05:18:30.271Z,97132.06
2018-11-03T05:20:59.521Z,97136.15
2018-11-03T05:23:29.157Z,97136.36
2018-11-03T05:26:00.867Z,97131.45
2018-11-03T05:28:30.771Z,97134.41
2018-11-03T05:31:00.143Z,97137.59
2018-11-03T05:33:28.978Z,97143.21
2018-11-03T05:35:57.849Z,97143.00
2018-11-03T05:38:27.598Z,97143.72
2018-11-03T05:40:56.496Z,97137.89
2018-11-03T05:43:25.379Z,97141.88
2018-11-03T05:45:54.640Z,97140.69
2018-11-03T05:48:23.535Z,97136.20
2018-11-03T05:50:52.406Z,97140.80
2018-11-03T05:53:21.279Z,97137.53
2018-11-03T05:55:50.466Z,97140.39
2018-11-03T05:58:19.332Z,97132.10
2018-11-03T06:00:48.200Z,97123.31
2018-11-03T06:03:17.659Z,97129.08
2018-11-03T06:05:46.818Z,97127.23
2018-11-03T06:08:15.671Z,97129.19
2018-11-03T06:10:46.383Z,97141.28
2018-11-03T06:13:17.916Z,97136.06
2018-11-03T06:15:47.262Z,97134.02
2018-11-03T06:18:16.146Z,97134.94
2018-11-03T06:20:53.491Z,97132.80
2018-11-03T06:23:28.323Z,97129.94
2018-11-03T06:25:57.548Z,97117.87
2018-11-03T06:28:26.665Z,97119.57
2018-11-03T06:30:56.229Z,97127.03
2018-11-03T06:33:25.232Z,97126.22
2018-11-03T06:35:54.244Z,97133.52
2018-11-03T06:38:23.706Z,97126.86
2018-11-03T06:40:52.594Z,97130.03
2018-11-03T06:43:21.491Z,97132.28
2018-11-03T06:45:52.451Z,97136.64
2018-11-03T06:48:21.309Z,97141.92
2018-11-03T06:50:51.942Z,97144.38
2018-11-03T06:53:21.221Z,97143.72
2018-11-03T06:55:51.013Z,97143.10
2018-11-03T06:58:19.880Z,97144.22
2018-11-03T07:00:48.785Z,97153.53
2018-11-03T07:03:18.083Z,97148.69
2018-11-03T07:05:47.070Z,97156.11
2018-11-03T07:08:15.982Z,97158.36
2018-11-03T07:10:46.459Z,97161.73
2018-11-03T07:13:15.464Z,97164.50
2018-11-03T07:15:45.994Z,97172.95
2018-11-03T07:18:15.315Z,97170.80
2018-11-03T07:20:44.192Z,97172.84
2018-11-03T07:23:13.709Z,97175.91
2018-11-03T07:25:43.433Z,97173.09
2018-11-03T07:28:13.499Z,97166.91
2018-11-03T07:30:42.459Z,97173.14
2018-11-03T07:33:15.717Z,97181.70
2018-11-03T07:35:50.799Z,97186.61
2018-11-03T07:38:21.522Z,97186.51
2018-11-03T07:40:50.779Z,97185.93
2018-11-03T07:43:23.308Z,97188.24
2018-11-03T07:46:00.331Z,97186.61
2018-11-03T07:48:34.339Z,97183.90
2018-11-03T07:51:03.622Z,97184.72
2018-11-03T07:53:32.742Z,97187.42
2018-11-03T07:56:01.626Z,97191.72
2018-11-03T07:58:31.441Z,97197.95
2018-11-03T08:01:00.277Z,97188.85
2018-11-03T08:03:30.443Z,97191.91
2018-11-03T08:06:01.539Z,97189.88
2018-11-03T08:08:31.180Z,97185.35
2018-11-03T08:11:00.119Z,97197.23
2018-11-03T08:13:33.209Z,97195.47
2018-11-03T08:16:02.071Z,97196.90
2018-11-03T08:18:31.324Z,97201.79
2018-11-03T08:21:03.790Z,97194.31
2018-11-03T08:23:33.536Z,97190.31
2018-11-03T08:26:03.180Z,97187.00
2018-11-03T08:28:32.088Z,97180.58
2018-11-03T08:31:01.262Z,97179.16
2018-11-03T08:33:36.378Z,97181.72
2018-11-03T08:36:05.299Z,97190.84
2018-11-03T08:38:35.359Z,97179.97
2018-11-03T08:41:06.473Z,97175.02
2018-11-03T08:43:35.958Z,97186.93
2018-11-03T08:46:11.777Z,97177.61
2018-11-03T08:48:43.402Z,97177.98
2018-11-03T08:51:13.640Z,97172.80
2018-11-03T08:53:50.459Z,97173.62
2018-11-03T08:56:23.057Z,97174.29
2018-11-03T08:58:51.861Z,97175.20
2018-11-03T09:01:25.550Z,97174.98
2018-11-03T09:03:57.912Z,97166.78
2018-11-03T09:06:45.706Z,97171.54
2018-11-03T09:09:16.847Z,97174.72
2018-11-03T09:11:45.888Z,97167.39
2018-11-03T09:14:17.453Z,97161.06
2018-11-03T09:16:47.002Z,97166.66
2018-11-03T09:19:17.046Z,97170.43
2018-11-03T09:21:48.418Z,97166.30
2018-11-03T09:24:18.640Z,97165.70
2018-11-03T09:26:48.314Z,97168.53
2018-11-03T09:29:17.627Z,97166.37
2018-11-03T09:31:50.313Z,97161.37
2018-11-03T09:34:25.083Z,97164.91
2018-11-03T09:36:53.933Z,97157.00
2018-11-03T09:39:25.454Z,97161.69
2018-11-03T09:41:54.370Z,97155.84
2018-11-03T09:44:24.476Z,97165.22
2018-11-03T09:46:55.077Z,97165.73
2018-11-03T09:49:26.777Z,97164.70
2018-11-03T09:51:55.736Z,97166.72
2018-11-03T09:54:26.152Z,97168.58
2018-11-03T09:56:55.699Z,97174.56
2018-11-03T09:59:28.416Z,97166.56
2018-11-03T10:01:57.784Z,97163.28
2018-11-03T10:04:26.606Z,97154.65
2018-11-03T10:06:56.491Z,97153.44
2018-11-03T10:09:25.882Z,97143.28
2018-11-03T10:11:54.764Z,97148.53
2018-11-03T10:14:24.429Z,97148.52
2018-11-03T10:16:54.734Z,97147.78
2018-11-03T10:19:24.033Z,97145.50
2018-11-03T10:21:55.223Z,97144.05
2018-11-03T10:24:32.398Z,97140.03
2018-11-03T10:27:06.497Z,97140.83
2018-11-03T10:29:44.376Z,97140.46
2018-11-03T10:32:14.365Z,97140.88
2018-11-03T10:34:45.283Z,97127.01
2018-11-03T10:37:17.247Z,97131.61
2018-11-03T10:39:50.296Z,97128.27
2018-11-03T10:42:21.542Z,97128.81
2018-11-03T10:44:54.394Z,97122.73
2018-11-03T10:47:26.322Z,97125.78
2018-11-03T10:49:56.029Z,97131.64
2018-11-03T10:52:26.365Z,97130.00
2018-11-03T10:54:59.350Z,97129.68
2018-11-03T10:57:28.682Z,97120.97
2018-11-03T10:59:59.244Z,97111.73
2018-11-03T11:02:33.166Z,97114.36
2018-11-03T11:05:07.185Z,97114.66
2018-11-03T11:07:42.275Z,97119.64
2018-11-03T11:10:17.558Z,97116.52
2018-11-03T11:12:48.921Z,97120.59
2018-11-03T11:15:18.379Z,97116.00
2018-11-03T11:17:49.040Z,97115.85
2018-11-03T11:20:19.405Z,97113.69
2018-11-03T11:22:49.622Z,97108.73
2018-11-03T11:25:21.170Z,97107.39
2018-11-03T11:27:49.926Z,97117.26
2018-11-03T11:30:19.539Z,97101.38
2018-11-03T11:32:49.807Z,97105.44
2018-11-03T11:35:19.400Z,97103.43
2018-11-03T11:37:48.191Z,97099.71
2018-11-03T11:40:17.044Z,97097.20
2018-11-03T11:42:45.887Z,97094.16
2018-11-03T11:45:14.678Z,97093.83
2018-11-03T11:47:44.830Z,97091.04
2018-11-03T11:50:14.504Z,97095.86
2018-11-03T11:52:49.065Z,97092.56
2018-11-03T11:55:19.215Z,97091.45
2018-11-03T11:57:49.197Z,97092.36
2018-11-03T12:00:19.053Z,97085.45
2018-11-03T12:02:47.934Z,97086.98
2018-11-03T12:05:19.944Z,97091.36
2018-11-03T12:07:49.382Z,97087.28
2018-11-03T12:10:22.823Z,97083.48
2018-11-03T12:12:53.521Z,97084.69
2018-11-03T12:15:24.744Z,97083.76
2018-11-03T12:17:55.399Z,97082.94
2018-11-03T12:20:29.063Z,97077.67
2018-11-03T12:22:59.367Z,97071.89
2018-11-03T12:25:30.398Z,97068.81
2018-11-03T12:28:02.538Z,97066.15
2018-11-03T12:30:33.476Z,97070.22
2018-11-03T12:33:04.303Z,97069.48
2018-11-03T12:35:33.922Z,97064.48
2018-11-03T12:38:08.474Z,97055.28
2018-11-03T12:40:38.865Z,97051.09
2018-11-03T12:43:08.214Z,97058.22
2018-11-03T12:49:30.665Z,97051.23
2018-11-03T12:52:02.333Z,97051.64
2018-11-03T12:54:32.685Z,97044.30
2018-11-03T12:57:04.043Z,97047.75
2018-11-03T12:59:34.247Z,97043.74
2018-11-03T13:02:04.425Z,97050.58
2018-11-03T13:08:06.334Z,97037.78
2018-11-03T13:10:36.460Z,97042.61
2018-11-03T13:13:07.366Z,97033.97
2018-11-03T13:15:37.089Z,97033.75
2018-11-03T13:18:06.422Z,97037.64
2018-11-03T13:20:35.291Z,97044.54
2018-11-03T13:23:06.403Z,97047.95
2018-11-03T13:25:36.850Z,97045.80
2018-11-03T13:28:07.453Z,97054.92
2018-11-03T13:30:36.397Z,97045.49
2018-11-03T13:33:06.281Z,97050.75
2018-11-03T13:35:37.376Z,97047.30
2018-11-03T13:38:07.186Z,97055.08
2018-11-03T13:40:37.948Z,97056.04
2018-11-03T13:43:09.491Z,97049.77
2018-11-03T13:45:41.478Z,97042.28
2018-11-03T13:48:13.663Z,97043.39
2018-11-03T13:50:43.452Z,97038.13
2018-11-03T13:53:12.314Z,97042.52
2018-11-03T13:55:41.165Z,97041.19
2018-11-03T13:58:13.131Z,97037.48
2018-11-03T14:00:44.172Z,97033.27
2018-11-03T14:03:14.836Z,97030.81
2018-11-03T14:05:45.253Z,97029.27
2018-11-03T14:08:18.267Z,97022.81
2018-11-03T14:11:17.837Z,97018.22
2018-11-03T14:13:53.474Z,97014.96
2018-11-03T14:16:22.373Z,97012.22
2018-11-03T14:18:52.390Z,97017.72
2018-11-03T14:21:21.385Z,97011.36
2018-11-03T14:23:50.331Z,97017.43
2018-11-03T14:26:19.453Z,97015.66
2018-11-03T14:28:54.536Z,97015.80
2018-11-03T14:31:24.759Z,97017.12
2018-11-03T14:33:54.387Z,97016.20
2018-11-03T14:36:24.138Z,97016.16
2018-11-03T14:38:53.006Z,97017.23
2018-11-03T14:41:22.206Z,97010.66
2018-11-03T14:43:51.794Z,97015.69
2018-11-03T14:46:22.706Z,97020.61
2018-11-03T14:48:54.381Z,97015.91
2018-11-03T14:51:24.054Z,97016.52
2018-11-03T14:53:52.898Z,97018.97
2018-11-03T14:56:21.741Z,97023.88
2018-11-03T14:58:54.823Z,97015.72
2018-11-03T15:01:25.366Z,97014.60
2018-11-03T15:03:55.475Z,97017.05
2018-11-03T15:06:24.363Z,97016.61
2018-11-03T15:08:53.199Z,97014.91
2018-11-03T15:11:25.021Z,97010.04
2018-11-03T15:13:54.764Z,97003.08
2018-11-03T15:16:23.401Z,97007.42
2018-11-03T15:18:53.169Z,97006.83
2018-11-03T15:21:22.042Z,97006.04
2018-11-03T15:23:52.166Z,97008.70
2018-11-03T15:26:21.030Z,97004.63
2018-11-03T15:28:50.310Z,97002.05
2018-11-03T15:31:19.138Z,97006.27
2018-11-03T15:33:52.350Z,97006.31
2018-11-03T15:36:23.785Z,97006.56
2018-11-03T15:38:53.423Z,97003.09
2018-11-03T15:41:24.759Z,97005.75
2018-11-03T15:43:55.584Z,97009.23
2018-11-03T15:46:26.689Z,97004.34
2018-11-03T15:48:56.607Z,97006.48
2018-11-03T15:51:26.211Z,97003.82
2018-11-03T15:59:17.338Z,97007.52
2018-11-03T16:01:47.151Z,97006.41
2018-11-03T16:04:17.662Z,97001.30
2018-11-03T16:06:46.526Z,96996.27
2018-11-03T16:09:17.906Z,97002.11
2018-11-03T16:11:48.000Z,96997.22
2018-11-03T16:14:18.072Z,96997.77
2018-11-03T16:16:47.413Z,96994.34
2018-11-03T16:19:16.279Z,96994.28
2018-11-03T16:21:45.782Z,96984.14
2018-11-03T16:24:14.684Z,96983.68
2018-11-03T16:26:44.310Z,96987.11
2018-11-03T16:29:14.714Z,96981.02
2018-11-03T16:31:44.274Z,96986.34
2018-11-03T16:34:14.663Z,96986.86
2018-11-03T16:36:45.342Z,96981.02
2018-11-03T16:39:14.503Z,96975.91
2018-11-03T16:41:47.287Z,96983.12
2018-11-03T16:44:17.797Z,96973.71
2018-11-03T16:46:48.803Z,96978.44
2018-11-03T16:49:24.367Z,96976.08
2018-11-03T16:51:55.223Z,96970.53
2018-11-03T16:54:30.476Z,96968.59
2018-11-03T16:56:59.467Z,96970.97
2018-11-03T16:59:29.940Z,96971.27
2018-11-03T17:01:59.300Z,96969.20
2018-11-03T17:04:28.875Z,96971.27
2018-11-03T17:06:59.505Z,96975.56
2018-11-03T17:09:28.995Z,96962.75
2018-11-03T17:11:57.942Z,96962.45
2018-11-03T17:14:26.851Z,96964.82
2018-11-03T17:16:55.991Z,96962.67
2018-11-03T17:19:24.850Z,96964.60
2018-11-03T17:21:53.722Z,96958.02
2018-11-03T17:24:24.539Z,96962.02
2018-11-03T17:26:57.078Z,96959.70
2018-11-03T17:29:26.918Z,96963.41
2018-11-03T17:31:57.865Z,96961.50
2018-11-03T17:34:29.616Z,96963.87
2018-11-03T17:36:59.319Z,96964.60
2018-11-03T17:39:29.423Z,96963.19
2018-11-03T17:41:59.679Z,96962.67
2018-11-03T17:44:36.294Z,96958.16
2018-11-03T17:47:07.490Z,96955.80
2018-11-03T17:49:40.164Z,96961.34
2018-11-03T17:52:13.008Z,96962.45
2018-11-03T17:54:42.493Z,96954.68
2018-11-03T17:57:18.839Z,96950.91
2018-11-03T17:59:47.838Z,96953.56
2018-11-03T18:02:18.773Z,96953.65
2018-11-03T18:04:49.475Z,96952.75
2018-11-03T18:07:21.306Z,96955.20
2018-11-03T18:09:54.403Z,96948.19
2018-11-03T18:12:27.099Z,96939.73
2018-11-03T18:14:57.151Z,96942.69
2018-11-03T18:17:29.218Z,96938.09
2018-11-03T18:20:05.338Z,96932.42
2018-11-03T18:22:39.075Z,96935.83
2018-11-03T18:25:14.319Z,96930.20
2018-11-03T18:27:46.433Z,96928.56
2018-11-03T18:30:21.663Z,96925.47
2018-11-03T18:32:54.754Z,96926.88
2018-11-03T18:35:29.364Z,96925.77
2018-11-03T18:38:00.290Z,96926.06
2018-11-03T18:40:32.414Z,96921.39
2018-11-03T18:45:49.350Z,96924.36
2018-11-03T18:48:18.945Z,96918.73
2018-11-03T18:50:52.547Z,96923.84
2018-11-03T18:53:22.383Z,96924.73
2018-11-03T18:55:54.667Z,96920.22
2018-11-03T18:58:26.948Z,96914.59
2018-11-03T19:00:57.334Z,96918.81
2018-11-03T19:03:26.515Z,96913.70
2018-11-03T19:05:56.809Z,96909.41
2018-11-03T19:08:26.631Z,96910.73
2018-11-03T19:10:58.711Z,96902.53
2018-11-03T19:13:27.560Z,96899.17
2018-11-03T19:15:57.185Z,96901.05
2018-11-03T19:18:26.063Z,96902.91
2018-11-03T19:20:55.303Z,96902.66
2018-11-03T19:30:21.317Z,96892.17
2018-11-03T19:32:51.810Z,96894.31
2018-11-03T19:35:27.106Z,96892.25
2018-11-03T19:37:57.766Z,96888.77
2018-11-03T19:40:50.820Z,96887.95
2018-11-03T19:43:21.352Z,96876.27
2018-11-03T19:45:50.411Z,96877.08
2018-11-03T19:48:22.299Z,96875.97
2018-11-03T19:50:51.733Z,96876.48
2018-11-03T19:53:23.779Z,96881.08
2018-11-03T19:56:01.236Z,96872.02
2018-11-03T19:58:32.115Z,96867.46
2018-11-03T20:01:03.704Z,96866.86
2018-11-03T20:03:36.433Z,96864.86
2018-11-03T20:06:05.330Z,96866.19
2018-11-03T20:08:40.318Z,96865.97
2018-11-03T20:11:11.970Z,96878.55
2018-11-03T20:13:45.080Z,96869.23
2018-11-03T20:16:14.842Z,96870.78
2018-11-03T20:18:50.094Z,96878.77
2018-11-03T20:21:20.436Z,96882.25
2018-11-03T20:23:50.007Z,96872.11
2018-11-03T20:26:21.866Z,96877.95
2018-11-03T20:28:50.706Z,96867.60
2018-11-03T20:31:26.116Z,96866.48
2018-11-03T20:33:59.309Z,96863.09
2018-11-03T20:36:30.120Z,96867.16
2018-11-03T20:39:01.443Z,96864.28
2018-11-03T20:41:32.020Z,96860.80
2018-11-03T20:44:02.087Z,96854.95
2018-11-03T20:46:30.880Z,96855.98
2018-11-03T20:49:04.442Z,96856.29
2018-11-03T20:51:37.418Z,96852.04
2018-11-03T20:54:08.468Z,96850.19
2018-11-03T20:56:38.503Z,96855.81
2018-11-03T20:59:07.407Z,96854.48
2018-11-03T21:01:38.152Z,96852.93
2018-11-03T21:04:07.555Z,96848.64
2018-11-03T21:06:38.220Z,96842.80
2018-11-03T21:09:10.056Z,96836.95
2018-11-03T21:11:47.486Z,96833.39
2018-11-03T21:14:21.666Z,96832.31
2018-11-03T21:16:52.184Z,96824.55
2018-11-03T21:19:22.336Z,96822.69
2018-11-03T21:21:56.518Z,96825.36
2018-11-03T21:24:25.442Z,96822.39
2018-11-03T21:26:56.206Z,96822.91
2018-11-03T21:29:25.398Z,96821.80
2018-11-03T21:31:55.546Z,96819.36
2018-11-03T21:34:25.718Z,96823.35
2018-11-03T21:37:08.885Z,96810.26
2018-11-03T21:39:39.680Z,96809.96
2018-11-03T21:42:09.534Z,96808.92
2018-11-03T21:44:41.365Z,96801.45
2018-11-03T21:47:14.126Z,96802.22
2018-11-03T21:49:46.641Z,96796.38
2018-11-03T21:52:30.412Z,96794.45
2018-11-03T21:55:00.343Z,96793.94
2018-11-03T21:57:31.298Z,96792.31
2018-11-03T22:00:00.266Z,96789.64
2018-11-03T22:02:30.441Z,96782.91
2018-11-03T22:05:02.942Z,96786.61
2018-11-03T22:07:34.424Z,96784.17
2018-11-03T22:10:08.458Z,96786.53
2018-11-03T22:12:40.052Z,96777.47
2018-11-03T22:15:12.363Z,96777.98
2018-11-03T22:17:43.150Z,96774.21
2018-11-03T22:20:15.510Z,96774.73
2018-11-03T22:22:47.975Z,96770.44
2018-11-03T22:25:18.191Z,96759.78
2018-11-03T22:27:47.124Z,96757.74
2018-11-03T22:30:16.430Z,96751.01
2018-11-03T22:32:47.371Z,96744.06
2018-11-03T22:35:17.386Z,96740.36
2018-11-03T22:37:46.527Z,96743.32
2018-11-03T22:40:16.514Z,96733.92
2018-11-03T22:42:46.591Z,96738.22
2018-11-03T22:45:15.461Z,96735.48
2018-11-03T22:47:44.462Z,96727.78
2018-11-03T22:50:16.177Z,96723.58
2018-11-03T22:52:46.142Z,96718.84
2018-11-03T22:55:16.350Z,96715.88
2018-11-03T22:57:45.998Z,96715.00
2018-11-03T23:00:15.280Z,96709.59
2018-11-03T23:02:48.649Z,96714.36
2018-11-03T23:05:25.431Z,96715.46
2018-11-03T23:07:55.592Z,96710.61
2018-11-03T23:10:24.878Z,96709.13
2018-11-03T23:12:55.970Z,96704.03
2018-11-03T23:15:41.268Z,96701.37
2018-11-03T23:18:11.935Z,96701.52
2018-11-03T23:20:43.283Z,96711.20
2018-11-03T23:23:14.235Z,96697.83
2018-11-03T23:25:47.703Z,96696.83
2018-11-03T23:28:17.413Z,96697.64
2018-11-03T23:33:31.894Z,96700.27
2018-11-03T23:36:09.572Z,96697.83
2018-11-03T23:38:50.257Z,96687.77
2018-11-03T23:41:19.784Z,96685.67
2018-11-03T23:43:56.686Z,96681.75
2018-11-03T23:46:32.220Z,96679.91
2018-11-03T23:49:03.848Z,96679.38
2018-11-03T23:51:34.335Z,96676.80
2018-11-03T23:54:04.134Z,96669.33
2018-11-03T23:56:34.188Z,96661.34
2018-11-03T23:59:03.304Z,96663.19
